sensor_id;sensor_type;location;lat;lon;timestamp;pressure;altitude;pressure_sealevel;temperature;humidity
36222;BME280;22266;52.340;4.962;2023-04-27T00:02:01;102125.78;;;6.74;64.94
36222;BME280;22266;52.340;4.962;2023-04-27T00:04:28;102119.72;;;6.72;64.73
36222;BME280;22266;52.340;4.962;2023-04-27T00:06:55;102114.09;;;6.65;64.54
36222;BME280;22266;52.340;4.962;2023-04-27T00:09:21;102120.28;;;6.65;64.90
36222;BME280;22266;52.340;4.962;2023-04-27T00:11:48;102117.88;;;6.62;65.06
36222;BME280;22266;52.340;4.962;2023-04-27T00:14:14;102118.88;;;6.61;64.92
36222;BME280;22266;52.340;4.962;2023-04-27T00:16:41;102124.47;;;6.58;64.45
36222;BME280;22266;52.340;4.962;2023-04-27T00:19:08;102117.72;;;6.54;64.88
36222;BME280;22266;52.340;4.962;2023-04-27T00:21:34;102124.06;;;6.53;65.18
36222;BME280;22266;52.340;4.962;2023-04-27T00:24:00;102117.13;;;6.51;65.01
36222;BME280;22266;52.340;4.962;2023-04-27T00:26:27;102118.13;;;6.50;65.29
36222;BME280;22266;52.340;4.962;2023-04-27T00:28:54;102120.06;;;6.48;66.02
36222;BME280;22266;52.340;4.962;2023-04-27T00:31:22;102114.03;;;6.46;65.37
36222;BME280;22266;52.340;4.962;2023-04-27T00:33:49;102112.47;;;6.43;65.37
36222;BME280;22266;52.340;4.962;2023-04-27T00:36:15;102115.13;;;6.43;66.12
36222;BME280;22266;52.340;4.962;2023-04-27T00:38:42;102118.94;;;6.40;65.66
36222;BME280;22266;52.340;4.962;2023-04-27T00:41:08;102113.88;;;6.37;65.98
36222;BME280;22266;52.340;4.962;2023-04-27T00:43:43;102120.31;;;6.35;66.03
36222;BME280;22266;52.340;4.962;2023-04-27T00:46:11;102113.44;;;6.32;65.73
36222;BME280;22266;52.340;4.962;2023-04-27T00:48:39;102116.22;;;6.31;65.96
36222;BME280;22266;52.340;4.962;2023-04-27T00:51:06;102116.47;;;6.28;66.32
36222;BME280;22266;52.340;4.962;2023-04-27T00:53:33;102110.59;;;6.24;66.07
36222;BME280;22266;52.340;4.962;2023-04-27T00:56:00;102112.53;;;6.22;66.20
36222;BME280;22266;52.340;4.962;2023-04-27T00:58:27;102115.22;;;6.22;66.61
36222;BME280;22266;52.340;4.962;2023-04-27T01:00:54;102116.06;;;6.23;66.46
36222;BME280;22266;52.340;4.962;2023-04-27T01:03:21;102115.47;;;6.19;66.20
36222;BME280;22266;52.340;4.962;2023-04-27T01:05:48;102113.94;;;6.16;66.23
36222;BME280;22266;52.340;4.962;2023-04-27T01:08:14;102121.22;;;6.14;66.82
36222;BME280;22266;52.340;4.962;2023-04-27T01:10:41;102120.53;;;6.12;66.61
36222;BME280;22266;52.340;4.962;2023-04-27T01:13:09;102111.78;;;6.10;66.57
36222;BME280;22266;52.340;4.962;2023-04-27T01:15:36;102116.28;;;6.10;66.36
36222;BME280;22266;52.340;4.962;2023-04-27T01:18:07;102118.38;;;6.06;66.60
36222;BME280;22266;52.340;4.962;2023-04-27T01:20:35;102108.81;;;6.04;66.65
36222;BME280;22266;52.340;4.962;2023-04-27T01:23:01;102122.19;;;6.04;66.70
36222;BME280;22266;52.340;4.962;2023-04-27T01:25:27;102104.72;;;6.00;66.81
36222;BME280;22266;52.340;4.962;2023-04-27T01:27:54;102111.84;;;5.99;66.53
36222;BME280;22266;52.340;4.962;2023-04-27T01:30:20;102108.50;;;5.97;66.46
36222;BME280;22266;52.340;4.962;2023-04-27T01:32:50;102101.56;;;5.94;66.48
36222;BME280;22266;52.340;4.962;2023-04-27T01:35:17;102106.22;;;5.92;67.17
36222;BME280;22266;52.340;4.962;2023-04-27T01:37:44;102093.81;;;5.91;67.29
36222;BME280;22266;52.340;4.962;2023-04-27T01:40:11;102082.38;;;5.89;67.16
36222;BME280;22266;52.340;4.962;2023-04-27T01:42:38;102086.06;;;5.88;66.81
36222;BME280;22266;52.340;4.962;2023-04-27T01:45:07;102083.63;;;5.85;67.18
36222;BME280;22266;52.340;4.962;2023-04-27T01:47:34;102085.56;;;5.83;66.84
36222;BME280;22266;52.340;4.962;2023-04-27T01:50:01;102069.84;;;5.80;67.27
36222;BME280;22266;52.340;4.962;2023-04-27T01:52:27;102076.88;;;5.81;67.77
36222;BME280;22266;52.340;4.962;2023-04-27T01:54:54;102082.34;;;5.80;67.38
36222;BME280;22266;52.340;4.962;2023-04-27T01:57:21;102085.88;;;5.80;67.33
36222;BME280;22266;52.340;4.962;2023-04-27T01:59:47;102089.63;;;5.78;67.69
36222;BME280;22266;52.340;4.962;2023-04-27T02:02:15;102077.13;;;5.78;67.58
36222;BME280;22266;52.340;4.962;2023-04-27T02:04:41;102079.09;;;5.76;67.59
36222;BME280;22266;52.340;4.962;2023-04-27T02:07:08;102080.06;;;5.75;67.59
36222;BME280;22266;52.340;4.962;2023-04-27T02:09:35;102074.84;;;5.74;67.13
36222;BME280;22266;52.340;4.962;2023-04-27T02:12:01;102065.25;;;5.71;67.33
36222;BME280;22266;52.340;4.962;2023-04-27T02:14:28;102069.75;;;5.70;67.85
36222;BME280;22266;52.340;4.962;2023-04-27T02:16:55;102068.22;;;5.68;67.87
36222;BME280;22266;52.340;4.962;2023-04-27T02:19:21;102073.56;;;5.68;67.93
36222;BME280;22266;52.340;4.962;2023-04-27T02:21:48;102081.69;;;5.66;67.89
36222;BME280;22266;52.340;4.962;2023-04-27T02:24:15;102075.66;;;5.64;67.92
36222;BME280;22266;52.340;4.962;2023-04-27T02:26:43;102071.28;;;5.63;68.05
36222;BME280;22266;52.340;4.962;2023-04-27T02:29:10;102073.38;;;5.60;68.32
36222;BME280;22266;52.340;4.962;2023-04-27T02:31:37;102069.00;;;5.59;67.97
36222;BME280;22266;52.340;4.962;2023-04-27T02:34:03;102060.97;;;5.59;67.85
36222;BME280;22266;52.340;4.962;2023-04-27T02:36:30;102064.38;;;5.61;68.27
36222;BME280;22266;52.340;4.962;2023-04-27T02:38:56;102067.31;;;5.58;68.67
36222;BME280;22266;52.340;4.962;2023-04-27T02:41:23;102063.94;;;5.56;68.51
36222;BME280;22266;52.340;4.962;2023-04-27T02:43:52;102063.34;;;5.52;68.47
36222;BME280;22266;52.340;4.962;2023-04-27T02:46:19;102058.13;;;5.51;68.09
36222;BME280;22266;52.340;4.962;2023-04-27T02:48:45;102064.44;;;5.50;68.34
36222;BME280;22266;52.340;4.962;2023-04-27T02:51:12;102065.44;;;5.49;68.20
36222;BME280;22266;52.340;4.962;2023-04-27T02:53:38;102065.56;;;5.47;67.94
36222;BME280;22266;52.340;4.962;2023-04-27T02:56:05;102065.69;;;5.45;68.60
36222;BME280;22266;52.340;4.962;2023-04-27T02:58:31;102072.00;;;5.44;68.22
36222;BME280;22266;52.340;4.962;2023-04-27T03:00:58;102072.00;;;5.44;68.47
36222;BME280;22266;52.340;4.962;2023-04-27T03:03:24;102071.28;;;5.42;68.56
36222;BME280;22266;52.340;4.962;2023-04-27T03:05:51;102073.84;;;5.44;68.30
36222;BME280;22266;52.340;4.962;2023-04-27T03:08:18;102074.69;;;5.44;68.64
36222;BME280;22266;52.340;4.962;2023-04-27T03:10:44;102069.47;;;5.43;68.55
36222;BME280;22266;52.340;4.962;2023-04-27T03:13:13;102078.34;;;5.43;68.62
36222;BME280;22266;52.340;4.962;2023-04-27T03:15:42;102085.63;;;5.41;68.17
36222;BME280;22266;52.340;4.962;2023-04-27T03:18:08;102094.63;;;5.40;68.44
36222;BME280;22266;52.340;4.962;2023-04-27T03:20:35;102083.09;;;5.40;68.79
36222;BME280;22266;52.340;4.962;2023-04-27T03:23:01;102084.19;;;5.37;68.12
36222;BME280;22266;52.340;4.962;2023-04-27T03:25:28;102085.31;;;5.35;67.98
36222;BME280;22266;52.340;4.962;2023-04-27T03:27:54;102085.41;;;5.33;68.12
36222;BME280;22266;52.340;4.962;2023-04-27T03:30:21;102080.34;;;5.30;67.87
36222;BME280;22266;52.340;4.962;2023-04-27T03:32:48;102073.31;;;5.29;68.12
36222;BME280;22266;52.340;4.962;2023-04-27T03:35:14;102074.28;;;5.28;68.06
36222;BME280;22266;52.340;4.962;2023-04-27T03:37:41;102080.47;;;5.29;68.02
36222;BME280;22266;52.340;4.962;2023-04-27T03:40:08;102070.63;;;5.29;68.05
36222;BME280;22266;52.340;4.962;2023-04-27T03:42:35;102073.31;;;5.29;68.22
36222;BME280;22266;52.340;4.962;2023-04-27T03:45:01;102071.63;;;5.28;67.58
36222;BME280;22266;52.340;4.962;2023-04-27T03:47:28;102066.28;;;5.28;68.17
36222;BME280;22266;52.340;4.962;2023-04-27T03:49:55;102068.22;;;5.26;68.10
36222;BME280;22266;52.340;4.962;2023-04-27T03:52:22;102073.56;;;5.26;67.56
36222;BME280;22266;52.340;4.962;2023-04-27T03:54:48;102067.25;;;5.27;67.79
36222;BME280;22266;52.340;4.962;2023-04-27T03:57:16;102074.28;;;5.28;68.02
36222;BME280;22266;52.340;4.962;2023-04-27T03:59:43;102079.63;;;5.28;67.84
36222;BME280;22266;52.340;4.962;2023-04-27T04:02:09;102077.94;;;5.27;67.44
36222;BME280;22266;52.340;4.962;2023-04-27T04:04:37;102088.72;;;5.26;67.76
36222;BME280;22266;52.340;4.962;2023-04-27T04:07:04;102088.88;;;5.24;67.50
36222;BME280;22266;52.340;4.962;2023-04-27T04:09:31;102081.84;;;5.23;67.73
36222;BME280;22266;52.340;4.962;2023-04-27T04:11:58;102083.78;;;5.21;67.30
36222;BME280;22266;52.340;4.962;2023-04-27T04:14:26;102088.41;;;5.19;67.34
36222;BME280;22266;52.340;4.962;2023-04-27T04:16:53;102081.50;;;5.16;67.49
36222;BME280;22266;52.340;4.962;2023-04-27T04:19:20;102087.09;;;5.13;67.73
36222;BME280;22266;52.340;4.962;2023-04-27T04:21:47;102092.56;;;5.12;67.45
36222;BME280;22266;52.340;4.962;2023-04-27T04:24:14;102097.06;;;5.11;67.42
36222;BME280;22266;52.340;4.962;2023-04-27T04:26:41;102100.81;;;5.09;67.67
36222;BME280;22266;52.340;4.962;2023-04-27T04:29:08;102099.38;;;5.05;67.43
36222;BME280;22266;52.340;4.962;2023-04-27T04:31:36;102097.94;;;5.01;67.97
36222;BME280;22266;52.340;4.962;2023-04-27T04:34:03;102096.25;;;5.00;67.81
36222;BME280;22266;52.340;4.962;2023-04-27T04:36:30;102106.09;;;4.99;67.82
36222;BME280;22266;52.340;4.962;2023-04-27T04:38:57;102107.78;;;5.00;67.80
36222;BME280;22266;52.340;4.962;2023-04-27T04:41:25;102110.44;;;5.00;68.09
36222;BME280;22266;52.340;4.962;2023-04-27T04:43:51;102108.47;;;5.02;68.04
36222;BME280;22266;52.340;4.962;2023-04-27T04:46:18;102118.19;;;5.03;68.32
36222;BME280;22266;52.340;4.962;2023-04-27T04:48:45;102115.41;;;5.05;68.08
36222;BME280;22266;52.340;4.962;2023-04-27T04:51:12;102118.66;;;5.08;68.05
36222;BME280;22266;52.340;4.962;2023-04-27T04:53:38;102116.00;;;5.08;67.77
36222;BME280;22266;52.340;4.962;2023-04-27T04:56:09;102110.41;;;5.11;67.75
36222;BME280;22266;52.340;4.962;2023-04-27T04:58:36;102110.72;;;5.18;67.83
36222;BME280;22266;52.340;4.962;2023-04-27T05:01:06;102105.97;;;5.21;67.75
36222;BME280;22266;52.340;4.962;2023-04-27T05:03:33;102105.34;;;5.29;67.80
36222;BME280;22266;52.340;4.962;2023-04-27T05:06:00;102101.88;;;5.38;67.31
36222;BME280;22266;52.340;4.962;2023-04-27T05:08:26;102104.25;;;5.53;67.46
36222;BME280;22266;52.340;4.962;2023-04-27T05:10:53;102113.16;;;5.63;67.05
36222;BME280;22266;52.340;4.962;2023-04-27T05:13:20;102109.34;;;5.77;66.16
36222;BME280;22266;52.340;4.962;2023-04-27T05:15:46;102119.44;;;5.94;66.08
36222;BME280;22266;52.340;4.962;2023-04-27T05:18:13;102112.22;;;6.15;65.68
36222;BME280;22266;52.340;4.962;2023-04-27T05:20:40;102114.97;;;6.35;64.94
36222;BME280;22266;52.340;4.962;2023-04-27T05:23:06;102117.41;;;6.48;64.55
36222;BME280;22266;52.340;4.962;2023-04-27T05:25:34;102124.34;;;6.60;64.07
36222;BME280;22266;52.340;4.962;2023-04-27T05:28:08;102126.78;;;6.73;63.66
36222;BME280;22266;52.340;4.962;2023-04-27T05:30:35;102125.69;;;6.85;62.41
36222;BME280;22266;52.340;4.962;2023-04-27T05:33:02;102128.63;;;6.91;62.30
36222;BME280;22266;52.340;4.962;2023-04-27T05:35:29;102126.94;;;6.90;62.29
36222;BME280;22266;52.340;4.962;2023-04-27T05:37:56;102127.47;;;6.84;62.33
36222;BME280;22266;52.340;4.962;2023-04-27T05:40:23;102131.56;;;6.69;61.97
36222;BME280;22266;52.340;4.962;2023-04-27T05:42:49;102127.00;;;6.60;62.57
36222;BME280;22266;52.340;4.962;2023-04-27T05:45:16;102126.72;;;6.53;62.78
36222;BME280;22266;52.340;4.962;2023-04-27T05:47:42;102122.63;;;6.49;62.92
36222;BME280;22266;52.340;4.962;2023-04-27T05:50:09;102120.63;;;6.41;62.94
36222;BME280;22266;52.340;4.962;2023-04-27T05:52:36;102122.31;;;6.42;63.16
36222;BME280;22266;52.340;4.962;2023-04-27T05:55:04;102122.75;;;6.48;63.52
36222;BME280;22266;52.340;4.962;2023-04-27T05:57:32;102123.06;;;6.54;62.58
36222;BME280;22266;52.340;4.962;2023-04-27T05:59:58;102124.78;;;6.65;62.30
36222;BME280;22266;52.340;4.962;2023-04-27T06:02:25;102118.91;;;6.81;61.86
36222;BME280;22266;52.340;4.962;2023-04-27T06:04:52;102114.41;;;7.01;61.43
36222;BME280;22266;52.340;4.962;2023-04-27T06:07:18;102124.72;;;7.15;61.05
36222;BME280;22266;52.340;4.962;2023-04-27T06:09:45;102122.19;;;7.23;60.12
36222;BME280;22266;52.340;4.962;2023-04-27T06:12:11;102125.16;;;7.30;59.79
36222;BME280;22266;52.340;4.962;2023-04-27T06:14:38;102124.44;;;7.37;59.70
36222;BME280;22266;52.340;4.962;2023-04-27T06:17:04;102118.63;;;7.52;59.40
36222;BME280;22266;52.340;4.962;2023-04-27T06:19:33;102128.06;;;7.65;58.95
36222;BME280;22266;52.340;4.962;2023-04-27T06:22:00;102129.19;;;7.82;58.78
36222;BME280;22266;52.340;4.962;2023-04-27T06:24:26;102119.38;;;8.01;58.22
36222;BME280;22266;52.340;4.962;2023-04-27T06:26:54;102116.81;;;8.09;58.01
36222;BME280;22266;52.340;4.962;2023-04-27T06:29:20;102122.16;;;8.18;56.81
36222;BME280;22266;52.340;4.962;2023-04-27T06:31:46;102124.63;;;8.30;57.16
36222;BME280;22266;52.340;4.962;2023-04-27T06:34:13;102131.00;;;8.29;56.84
36222;BME280;22266;52.340;4.962;2023-04-27T06:36:39;102129.47;;;8.16;56.44
36222;BME280;22266;52.340;4.962;2023-04-27T06:39:06;102127.53;;;8.09;56.93
36222;BME280;22266;52.340;4.962;2023-04-27T06:41:32;102131.06;;;8.09;57.27
36222;BME280;22266;52.340;4.962;2023-04-27T06:43:59;102128.38;;;8.09;56.90
36222;BME280;22266;52.340;4.962;2023-04-27T06:46:25;102127.53;;;8.09;57.29
36222;BME280;22266;52.340;4.962;2023-04-27T06:48:52;102124.44;;;8.04;57.54
36222;BME280;22266;52.340;4.962;2023-04-27T06:51:19;102125.13;;;8.06;57.48
36222;BME280;22266;52.340;4.962;2023-04-27T06:53:45;102117.81;;;8.08;56.81
36222;BME280;22266;52.340;4.962;2023-04-27T06:56:12;102113.09;;;8.20;57.49
36222;BME280;22266;52.340;4.962;2023-04-27T06:58:38;102108.84;;;8.27;56.99
36222;BME280;22266;52.340;4.962;2023-04-27T07:01:05;102122.09;;;8.28;56.58
36222;BME280;22266;52.340;4.962;2023-04-27T07:03:34;102121.38;;;8.36;56.82
36222;BME280;22266;52.340;4.962;2023-04-27T07:06:01;102120.94;;;8.40;56.53
36222;BME280;22266;52.340;4.962;2023-04-27T07:08:28;102131.53;;;8.42;55.86
36222;BME280;22266;52.340;4.962;2023-04-27T07:10:55;102128.28;;;8.38;55.64
36222;BME280;22266;52.340;4.962;2023-04-27T07:13:21;102137.75;;;8.33;55.39
36222;BME280;22266;52.340;4.962;2023-04-27T07:15:53;102133.50;;;8.30;55.58
36222;BME280;22266;52.340;4.962;2023-04-27T07:18:23;102126.34;;;8.31;55.14
36222;BME280;22266;52.340;4.962;2023-04-27T07:20:49;102129.16;;;8.39;55.58
36222;BME280;22266;52.340;4.962;2023-04-27T07:23:16;102131.34;;;8.53;55.27
36222;BME280;22266;52.340;4.962;2023-04-27T07:25:42;102131.88;;;8.57;54.02
36222;BME280;22266;52.340;4.962;2023-04-27T07:28:11;102126.34;;;8.58;53.46
36222;BME280;22266;52.340;4.962;2023-04-27T07:30:38;102135.13;;;8.60;52.92
36222;BME280;22266;52.340;4.962;2023-04-27T07:33:04;102137.34;;;8.65;52.67
36222;BME280;22266;52.340;4.962;2023-04-27T07:35:31;102133.63;;;8.76;51.94
36222;BME280;22266;52.340;4.962;2023-04-27T07:37:59;102141.00;;;8.91;52.38
36222;BME280;22266;52.340;4.962;2023-04-27T07:40:28;102135.41;;;9.03;51.54
36222;BME280;22266;52.340;4.962;2023-04-27T07:42:55;102139.63;;;9.05;51.51
36222;BME280;22266;52.340;4.962;2023-04-27T07:45:23;102137.13;;;9.04;51.57
36222;BME280;22266;52.340;4.962;2023-04-27T07:47:58;102138.50;;;9.08;51.38
36222;BME280;22266;52.340;4.962;2023-04-27T07:50:26;102128.22;;;9.21;51.72
36222;BME280;22266;52.340;4.962;2023-04-27T07:52:53;102135.03;;;9.33;51.47
36222;BME280;22266;52.340;4.962;2023-04-27T07:55:20;102135.09;;;9.41;51.29
36222;BME280;22266;52.340;4.962;2023-04-27T07:57:49;102137.22;;;9.56;53.93
36222;BME280;22266;52.340;4.962;2023-04-27T08:00:16;102128.56;;;9.62;52.05
36222;BME280;22266;52.340;4.962;2023-04-27T08:02:43;102117.78;;;9.62;51.40
36222;BME280;22266;52.340;4.962;2023-04-27T08:05:10;102122.53;;;9.68;50.75
36222;BME280;22266;52.340;4.962;2023-04-27T08:07:37;102127.28;;;9.74;50.91
36222;BME280;22266;52.340;4.962;2023-04-27T08:10:09;102136.97;;;9.85;50.22
36222;BME280;22266;52.340;4.962;2023-04-27T08:12:36;102136.00;;;9.94;50.42
36222;BME280;22266;52.340;4.962;2023-04-27T08:15:04;102131.81;;;10.00;50.35
36222;BME280;22266;52.340;4.962;2023-04-27T08:17:30;102137.72;;;10.03;49.88
36222;BME280;22266;52.340;4.962;2023-04-27T08:19:57;102138.44;;;10.05;49.31
36222;BME280;22266;52.340;4.962;2023-04-27T08:22:24;102139.09;;;10.07;49.42
36222;BME280;22266;52.340;4.962;2023-04-27T08:24:50;102136.63;;;10.14;49.48
36222;BME280;22266;52.340;4.962;2023-04-27T08:27:16;102134.28;;;10.19;49.67
36222;BME280;22266;52.340;4.962;2023-04-27T08:29:47;102134.53;;;10.26;48.98
36222;BME280;22266;52.340;4.962;2023-04-27T08:32:14;102130.34;;;10.31;49.05
36222;BME280;22266;52.340;4.962;2023-04-27T08:34:41;102133.25;;;10.38;49.00
36222;BME280;22266;52.340;4.962;2023-04-27T08:37:10;102128.41;;;10.42;48.05
36222;BME280;22266;52.340;4.962;2023-04-27T08:39:36;102126.03;;;10.38;48.93
36222;BME280;22266;52.340;4.962;2023-04-27T08:42:12;102114.25;;;10.39;49.10
36222;BME280;22266;52.340;4.962;2023-04-27T08:44:39;102131.75;;;10.44;48.58
36222;BME280;22266;52.340;4.962;2023-04-27T08:47:06;102131.25;;;10.48;47.29
36222;BME280;22266;52.340;4.962;2023-04-27T08:49:34;102131.78;;;10.52;47.80
36222;BME280;22266;52.340;4.962;2023-04-27T08:52:09;102129.78;;;10.54;47.50
36222;BME280;22266;52.340;4.962;2023-04-27T08:54:36;102133.88;;;10.66;47.71
36222;BME280;22266;52.340;4.962;2023-04-27T08:59:40;102135.09;;;10.88;47.11
36222;BME280;22266;52.340;4.962;2023-04-27T09:02:18;102129.25;;;11.01;46.66
36222;BME280;22266;52.340;4.962;2023-04-27T09:04:45;102126.22;;;11.04;46.17
36222;BME280;22266;52.340;4.962;2023-04-27T09:07:16;102126.41;;;11.02;46.27
36222;BME280;22266;52.340;4.962;2023-04-27T09:09:44;102130.06;;;11.01;46.46
36222;BME280;22266;52.340;4.962;2023-04-27T09:12:20;102118.97;;;11.04;45.89
36222;BME280;22266;52.340;4.962;2023-04-27T09:14:56;102111.91;;;11.11;45.88
36222;BME280;22266;52.340;4.962;2023-04-27T09:17:27;102112.75;;;11.12;45.64
36222;BME280;22266;52.340;4.962;2023-04-27T09:20:07;102118.84;;;11.22;46.02
36222;BME280;22266;52.340;4.962;2023-04-27T09:22:46;102116.47;;;11.27;45.52
36222;BME280;22266;52.340;4.962;2023-04-27T09:27:50;102111.94;;;11.36;45.98
36222;BME280;22266;52.340;4.962;2023-04-27T09:30:17;102116.50;;;11.44;45.24
36222;BME280;22266;52.340;4.962;2023-04-27T09:32:51;102114.63;;;11.52;44.90
36222;BME280;22266;52.340;4.962;2023-04-27T09:35:26;102113.94;;;11.58;44.94
36222;BME280;22266;52.340;4.962;2023-04-27T09:37:54;102112.44;;;11.64;44.71
36222;BME280;22266;52.340;4.962;2023-04-27T09:40:22;102102.66;;;11.71;44.35
36222;BME280;22266;52.340;4.962;2023-04-27T09:42:54;102098.09;;;11.80;44.13
36222;BME280;22266;52.340;4.962;2023-04-27T09:45:24;102093.19;;;11.75;43.65
36222;BME280;22266;52.340;4.962;2023-04-27T09:47:51;102100.78;;;11.72;44.49
36222;BME280;22266;52.340;4.962;2023-04-27T09:50:18;102094.38;;;11.73;44.80
36222;BME280;22266;52.340;4.962;2023-04-27T09:52:45;102092.84;;;11.78;44.53
36222;BME280;22266;52.340;4.962;2023-04-27T09:55:18;102098.72;;;11.82;44.46
36222;BME280;22266;52.340;4.962;2023-04-27T10:00:56;102104.97;;;11.82;43.96
36222;BME280;22266;52.340;4.962;2023-04-27T10:09:14;102097.88;;;11.98;43.51
36222;BME280;22266;52.340;4.962;2023-04-27T10:11:43;102087.78;;;12.00;44.61
36222;BME280;22266;52.340;4.962;2023-04-27T10:14:16;102092.47;;;12.06;43.93
36222;BME280;22266;52.340;4.962;2023-04-27T10:16:53;102092.97;;;12.09;43.60
36222;BME280;22266;52.340;4.962;2023-04-27T10:19:22;102088.41;;;12.10;42.96
36222;BME280;22266;52.340;4.962;2023-04-27T10:24:18;102092.94;;;12.18;43.36
36222;BME280;22266;52.340;4.962;2023-04-27T10:26:46;102091.03;;;12.26;42.38
36222;BME280;22266;52.340;4.962;2023-04-27T10:29:13;102092.56;;;12.29;42.21
36222;BME280;22266;52.340;4.962;2023-04-27T10:31:46;102092.88;;;12.34;42.26
36222;BME280;22266;52.340;4.962;2023-04-27T10:34:17;102091.00;;;12.34;42.15
36222;BME280;22266;52.340;4.962;2023-04-27T10:36:48;102090.00;;;12.35;42.30
36222;BME280;22266;52.340;4.962;2023-04-27T10:39:20;102096.06;;;12.37;42.78
36222;BME280;22266;52.340;4.962;2023-04-27T10:41:58;102090.34;;;12.41;42.51
36222;BME280;22266;52.340;4.962;2023-04-27T10:44:27;102089.78;;;12.45;42.29
36222;BME280;22266;52.340;4.962;2023-04-27T10:46:55;102090.75;;;12.60;42.30
36222;BME280;22266;52.340;4.962;2023-04-27T10:49:22;102094.59;;;12.66;40.65
36222;BME280;22266;52.340;4.962;2023-04-27T10:51:50;102091.47;;;12.77;40.35
36222;BME280;22266;52.340;4.962;2023-04-27T10:54:16;102085.00;;;12.86;39.75
36222;BME280;22266;52.340;4.962;2023-04-27T10:56:44;102076.66;;;12.96;39.71
36222;BME280;22266;52.340;4.962;2023-04-27T10:59:10;102078.16;;;12.99;39.89
36222;BME280;22266;52.340;4.962;2023-04-27T11:01:38;102070.81;;;13.07;39.58
36222;BME280;22266;52.340;4.962;2023-04-27T11:04:05;102070.88;;;13.22;39.93
36222;BME280;22266;52.340;4.962;2023-04-27T11:06:41;102079.19;;;13.44;39.65
36222;BME280;22266;52.340;4.962;2023-04-27T11:09:09;102062.31;;;13.56;39.51
36222;BME280;22266;52.340;4.962;2023-04-27T11:11:36;102056.34;;;13.46;37.53
36222;BME280;22266;52.340;4.962;2023-04-27T11:14:02;102052.94;;;13.29;37.89
36222;BME280;22266;52.340;4.962;2023-04-27T11:16:32;102053.34;;;13.18;39.36
36222;BME280;22266;52.340;4.962;2023-04-27T11:19:03;102048.38;;;13.07;38.91
36222;BME280;22266;52.340;4.962;2023-04-27T11:21:30;102048.19;;;13.08;38.79
36222;BME280;22266;52.340;4.962;2023-04-27T11:24:07;102042.00;;;13.23;38.79
36222;BME280;22266;52.340;4.962;2023-04-27T11:26:34;102048.19;;;13.31;38.81
36222;BME280;22266;52.340;4.962;2023-04-27T11:29:03;102049.16;;;13.39;39.13
36222;BME280;22266;52.340;4.962;2023-04-27T11:34:07;102043.84;;;13.60;39.06
36222;BME280;22266;52.340;4.962;2023-04-27T11:36:33;102043.56;;;13.55;37.93
36222;BME280;22266;52.340;4.962;2023-04-27T11:39:00;102040.50;;;13.58;38.66
36222;BME280;22266;52.340;4.962;2023-04-27T11:41:35;102034.63;;;13.69;38.66
36222;BME280;22266;52.340;4.962;2023-04-27T11:44:06;102036.59;;;13.75;38.17
36222;BME280;22266;52.340;4.962;2023-04-27T11:46:34;102040.91;;;13.70;37.93
36222;BME280;22266;52.340;4.962;2023-04-27T11:49:02;102025.38;;;13.64;37.02
36222;BME280;22266;52.340;4.962;2023-04-27T11:51:30;102024.84;;;13.53;38.32
36222;BME280;22266;52.340;4.962;2023-04-27T11:54:05;102026.22;;;13.64;38.23
36222;BME280;22266;52.340;4.962;2023-04-27T11:56:37;102021.94;;;13.84;38.08
36222;BME280;22266;52.340;4.962;2023-04-27T11:59:04;102030.34;;;14.04;37.65
36222;BME280;22266;52.340;4.962;2023-04-27T12:01:33;102032.47;;;14.09;36.25
36222;BME280;22266;52.340;4.962;2023-04-27T12:04:03;102031.84;;;14.07;36.97
36222;BME280;22266;52.340;4.962;2023-04-27T12:06:30;102033.97;;;14.12;37.53
36222;BME280;22266;52.340;4.962;2023-04-27T12:08:59;102032.94;;;14.27;37.69
36222;BME280;22266;52.340;4.962;2023-04-27T12:11:26;102029.75;;;14.39;36.77
36222;BME280;22266;52.340;4.962;2023-04-27T12:13:56;102034.00;;;14.48;36.48
36222;BME280;22266;52.340;4.962;2023-04-27T12:16:22;102023.75;;;14.43;35.27
36222;BME280;22266;52.340;4.962;2023-04-27T12:18:49;102023.19;;;14.33;35.54
36222;BME280;22266;52.340;4.962;2023-04-27T12:21:16;102024.81;;;14.27;36.22
36222;BME280;22266;52.340;4.962;2023-04-27T12:23:42;102014.03;;;14.34;36.43
36222;BME280;22266;52.340;4.962;2023-04-27T12:26:09;102003.91;;;14.57;36.46
36222;BME280;22266;52.340;4.962;2023-04-27T12:28:38;102002.44;;;14.76;36.14
36222;BME280;22266;52.340;4.962;2023-04-27T12:31:04;102010.56;;;14.76;35.69
36222;BME280;22266;52.340;4.962;2023-04-27T12:33:31;101997.53;;;14.65;35.27
36222;BME280;22266;52.340;4.962;2023-04-27T12:35:57;101997.72;;;14.64;35.66
36222;BME280;22266;52.340;4.962;2023-04-27T12:38:24;102001.34;;;14.71;35.81
36222;BME280;22266;52.340;4.962;2023-04-27T12:40:50;102007.78;;;14.70;34.84
36222;BME280;22266;52.340;4.962;2023-04-27T12:43:17;102006.56;;;14.72;35.26
36222;BME280;22266;52.340;4.962;2023-04-27T12:45:43;101999.81;;;14.83;34.58
36222;BME280;22266;52.340;4.962;2023-04-27T12:48:10;101999.06;;;14.74;33.77
36222;BME280;22266;52.340;4.962;2023-04-27T12:50:37;101996.06;;;14.63;33.26
36222;BME280;22266;52.340;4.962;2023-04-27T12:53:03;101990.41;;;14.43;34.21
36222;BME280;22266;52.340;4.962;2023-04-27T12:55:31;102004.94;;;14.42;34.69
36222;BME280;22266;52.340;4.962;2023-04-27T12:58:01;101998.31;;;14.44;34.91
36222;BME280;22266;52.340;4.962;2023-04-27T13:00:28;101993.28;;;14.41;34.37
36222;BME280;22266;52.340;4.962;2023-04-27T13:02:55;101988.03;;;14.18;34.57
36222;BME280;22266;52.340;4.962;2023-04-27T13:05:22;101988.72;;;13.91;35.42
36222;BME280;22266;52.340;4.962;2023-04-27T13:07:49;101996.19;;;13.89;36.53
36222;BME280;22266;52.340;4.962;2023-04-27T13:10:15;101982.16;;;14.00;36.23
36222;BME280;22266;52.340;4.962;2023-04-27T13:12:42;101975.59;;;14.09;35.61
36222;BME280;22266;52.340;4.962;2023-04-27T13:15:09;101976.16;;;14.19;36.61
36222;BME280;22266;52.340;4.962;2023-04-27T13:17:35;101980.81;;;14.25;35.22
36222;BME280;22266;52.340;4.962;2023-04-27T13:20:02;101989.97;;;14.24;35.64